createdAt,value
2018-08-03T00:01:40.011Z,23.90
2018-08-03T00:04:08.152Z,23.90
2018-08-03T00:06:36.307Z,23.80
2018-08-03T00:09:07.342Z,23.80
2018-08-03T00:11:35.494Z,23.70
2018-08-03T00:14:03.626Z,23.70
2018-08-03T00:16:31.803Z,23.60
2018-08-03T00:19:00.151Z,23.50
2018-08-03T00:21:28.309Z,23.60
2018-08-03T00:23:56.475Z,23.50
2018-08-03T00:26:24.645Z,23.50
2018-08-03T00:28:52.772Z,23.50
2018-08-03T00:31:21.536Z,23.50
2018-08-03T00:33:49.734Z,23.50
2018-08-03T00:36:17.926Z,23.40
2018-08-03T00:38:46.182Z,23.40
2018-08-03T00:43:42.271Z,23.30
2018-08-03T00:46:10.415Z,23.20
2018-08-03T00:48:38.573Z,23.20
2018-08-03T00:51:06.718Z,23.10
2018-08-03T00:53:34.865Z,23.10
2018-08-03T00:56:03.119Z,23.00
2018-08-03T00:58:31.287Z,23.10
2018-08-03T01:00:59.443Z,23.10
2018-08-03T01:03:27.583Z,23.10
2018-08-03T01:05:55.703Z,23.00
2018-08-03T01:08:23.835Z,23.00
2018-08-03T01:10:51.953Z,23.00
2018-08-03T01:13:20.073Z,22.90
2018-08-03T01:15:48.201Z,22.90
2018-08-03T01:18:16.294Z,22.80
2018-08-03T01:20:44.415Z,22.80
2018-08-03T01:23:12.514Z,22.80
2018-08-03T01:25:40.658Z,22.70
2018-08-03T01:30:36.744Z,22.70
2018-08-03T01:33:04.843Z,22.80
2018-08-03T01:35:32.967Z,22.70
2018-08-03T01:38:01.161Z,22.70
2018-08-03T01:40:29.270Z,22.60
2018-08-03T01:42:57.367Z,22.60
2018-08-03T01:45:25.458Z,22.60
2018-08-03T01:47:53.621Z,22.60
2018-08-03T01:50:21.725Z,22.60
2018-08-03T01:52:49.933Z,22.50
2018-08-03T01:55:18.022Z,22.60
2018-08-03T01:57:46.138Z,22.50
2018-08-03T02:00:14.236Z,22.50
2018-08-03T02:02:42.330Z,22.50
2018-08-03T02:05:10.561Z,22.50
2018-08-03T02:07:38.654Z,22.40
2018-08-03T02:10:06.742Z,22.40
2018-08-03T02:12:34.871Z,22.50
2018-08-03T02:15:02.966Z,22.40
2018-08-03T02:17:31.166Z,22.40
2018-08-03T02:19:59.253Z,22.40
2018-08-03T02:22:27.341Z,22.40
2018-08-03T02:24:55.454Z,22.40
2018-08-03T02:27:23.539Z,22.30
2018-08-03T02:29:51.653Z,22.30
2018-08-03T02:32:19.788Z,22.30
2018-08-03T02:34:47.874Z,22.20
2018-08-03T02:37:15.993Z,22.20
2018-08-03T02:42:18.919Z,22.10
2018-08-03T02:44:47.047Z,22.10
2018-08-03T02:47:15.154Z,22.10
2018-08-03T02:49:46.445Z,22.00
2018-08-03T02:52:14.550Z,22.00
2018-08-03T02:54:42.662Z,22.00
2018-08-03T02:57:10.765Z,22.00
2018-08-03T02:59:38.937Z,22.00
2018-08-03T03:02:07.069Z,21.90
2018-08-03T03:04:35.169Z,21.90
2018-08-03T03:07:03.281Z,21.90
2018-08-03T03:09:31.681Z,21.90
2018-08-03T03:11:59.995Z,21.90
2018-08-03T03:14:28.086Z,21.80
2018-08-03T03:16:56.171Z,21.80
2018-08-03T03:19:24.274Z,21.80
2018-08-03T03:21:52.375Z,21.80
2018-08-03T03:24:20.453Z,21.80
2018-08-03T03:26:48.610Z,21.70
2018-08-03T03:29:16.693Z,21.70
2018-08-03T03:31:44.819Z,21.60
2018-08-03T03:34:13.385Z,21.50
2018-08-03T03:36:41.513Z,21.50
2018-08-03T03:39:11.653Z,21.50
2018-08-03T03:41:39.763Z,21.50
2018-08-03T03:44:07.938Z,21.50
2018-08-03T03:49:04.220Z,21.50
2018-08-03T03:51:32.357Z,21.40
2018-08-03T03:54:00.721Z,21.40
2018-08-03T03:56:28.834Z,21.40
2018-08-03T03:58:56.946Z,21.40
2018-08-03T04:01:25.029Z,21.40
2018-08-03T04:03:53.257Z,21.30
2018-08-03T04:06:21.410Z,21.30
2018-08-03T04:08:49.501Z,21.30
2018-08-03T04:11:17.597Z,21.30
2018-08-03T04:13:45.692Z,21.30
2018-08-03T04:16:13.849Z,21.30
2018-08-03T04:23:37.846Z,21.20
2018-08-03T04:26:06.049Z,21.20
2018-08-03T04:28:34.174Z,21.10
2018-08-03T04:31:02.254Z,21.10
2018-08-03T04:33:30.367Z,21.20
2018-08-03T04:35:58.441Z,21.20
2018-08-03T04:38:26.543Z,21.20
2018-08-03T04:40:54.671Z,21.20
2018-08-03T04:43:22.748Z,21.20
2018-08-03T04:45:50.839Z,21.30
2018-08-03T04:48:19.080Z,21.30
2018-08-03T04:50:47.164Z,21.40
2018-08-03T04:53:15.257Z,21.40
2018-08-03T04:55:43.394Z,21.50
2018-08-03T04:58:11.529Z,21.50
2018-08-03T05:00:39.652Z,21.50
2018-08-03T05:03:07.794Z,21.60
2018-08-03T05:05:35.908Z,21.60
2018-08-03T05:08:04.000Z,21.70
2018-08-03T05:10:32.115Z,21.70
2018-08-03T05:13:00.204Z,21.80
2018-08-03T05:15:28.329Z,21.80
2018-08-03T05:17:56.454Z,21.80
2018-08-03T05:20:24.567Z,21.90
2018-08-03T05:22:52.641Z,22.00
2018-08-03T05:25:20.874Z,22.00
2018-08-03T05:27:49.010Z,22.10
2018-08-03T05:30:17.123Z,22.20
2018-08-03T05:32:45.225Z,22.20
2018-08-03T05:35:13.329Z,22.40
2018-08-03T05:37:41.443Z,22.40
2018-08-03T05:40:09.605Z,22.50
2018-08-03T05:42:37.754Z,22.50
2018-08-03T05:45:07.048Z,22.60
2018-08-03T05:47:35.212Z,22.60
2018-08-03T05:50:03.490Z,22.70
2018-08-03T05:52:31.596Z,22.80
2018-08-03T05:54:59.669Z,22.90
2018-08-03T05:57:27.760Z,23.00
2018-08-03T05:59:56.249Z,23.10
2018-08-03T06:02:24.446Z,23.20
2018-08-03T06:04:52.854Z,23.30
2018-08-03T06:07:20.981Z,23.40
2018-08-03T06:09:49.087Z,23.40
2018-08-03T06:12:17.214Z,23.50
2018-08-03T06:14:45.319Z,23.60
2018-08-03T06:17:13.436Z,23.70
2018-08-03T06:19:41.533Z,23.70
2018-08-03T06:22:09.655Z,23.80
2018-08-03T06:24:37.783Z,23.80
2018-08-03T06:27:06.091Z,23.90
2018-08-03T06:32:02.144Z,24.10
2018-08-03T06:34:30.262Z,24.10
2018-08-03T06:36:58.371Z,24.20
2018-08-03T06:39:26.629Z,24.20
2018-08-03T06:41:54.743Z,24.20
2018-08-03T06:44:22.845Z,24.30
2018-08-03T06:46:50.966Z,24.40
2018-08-03T06:49:19.047Z,24.40
2018-08-03T06:51:47.153Z,24.50
2018-08-03T06:54:15.293Z,24.60
2018-08-03T06:56:43.396Z,24.70
2018-08-03T06:59:11.526Z,24.70
2018-08-03T07:01:39.840Z,24.70
2018-08-03T07:04:07.934Z,24.90
2018-08-03T07:06:36.021Z,25.00
2018-08-03T07:09:07.193Z,25.00
2018-08-03T07:11:35.436Z,25.10
2018-08-03T07:14:03.538Z,25.10
2018-08-03T07:16:31.661Z,25.10
2018-08-03T07:18:59.741Z,25.20
2018-08-03T07:21:27.884Z,25.30
2018-08-03T07:23:56.670Z,25.10
2018-08-03T07:26:25.167Z,25.20
2018-08-03T07:28:53.612Z,25.30
2018-08-03T07:31:21.772Z,25.40
2018-08-03T07:33:50.212Z,25.50
2018-08-03T07:36:18.327Z,25.70
2018-08-03T07:38:46.637Z,25.80
2018-08-03T07:41:14.759Z,25.90
2018-08-03T07:43:42.902Z,26.10
2018-08-03T07:46:11.016Z,26.20
2018-08-03T07:48:39.163Z,26.30
2018-08-03T07:51:07.232Z,26.50
2018-08-03T07:53:35.318Z,26.60
2018-08-03T07:56:03.414Z,26.80
2018-08-03T07:58:31.625Z,26.70
2018-08-03T08:00:59.730Z,26.70
2018-08-03T08:03:27.867Z,26.80
2018-08-03T08:05:56.013Z,26.80
2018-08-03T08:08:24.121Z,26.80
2018-08-03T08:10:52.288Z,26.90
2018-08-03T08:13:20.417Z,27.00
2018-08-03T08:15:48.508Z,27.10
2018-08-03T08:18:16.630Z,27.20
2018-08-03T08:20:44.749Z,27.40
2018-08-03T08:23:12.832Z,27.60
2018-08-03T08:25:40.949Z,27.70
2018-08-03T08:28:09.115Z,27.90
2018-08-03T08:30:37.212Z,27.90
2018-08-03T08:33:05.303Z,28.10
2018-08-03T08:35:33.424Z,28.10
2018-08-03T08:38:01.573Z,28.30
2018-08-03T08:40:29.685Z,28.30
2018-08-03T08:42:57.806Z,28.40
2018-08-03T08:45:25.922Z,28.40
2018-08-03T08:47:54.012Z,28.30
2018-08-03T08:50:27.987Z,28.30
2018-08-03T08:52:56.105Z,28.30
2018-08-03T08:55:24.205Z,28.40
2018-08-03T08:57:52.319Z,28.40
2018-08-03T09:00:20.535Z,28.50
2018-08-03T09:02:48.669Z,28.70
2018-08-03T09:05:16.777Z,28.80
2018-08-03T09:07:44.961Z,28.90
2018-08-03T09:10:13.069Z,28.80
2018-08-03T09:12:41.225Z,28.80
2018-08-03T09:15:09.317Z,28.90
2018-08-03T09:17:37.435Z,29.10
2018-08-03T09:20:05.843Z,29.30
2018-08-03T09:22:33.959Z,29.50
2018-08-03T09:25:02.289Z,29.50
2018-08-03T09:27:30.474Z,29.70
2018-08-03T09:29:58.606Z,29.90
2018-08-03T09:32:26.747Z,30.00
2018-08-03T09:34:54.877Z,30.00
2018-08-03T09:37:22.998Z,30.20
2018-08-03T09:39:51.403Z,30.20
2018-08-03T09:42:19.562Z,30.40
2018-08-03T09:44:47.677Z,30.40
2018-08-03T09:47:15.803Z,30.40
2018-08-03T09:49:43.945Z,30.40
2018-08-03T09:52:12.046Z,30.50
2018-08-03T09:54:40.197Z,30.70
2018-08-03T09:57:08.309Z,30.90
2018-08-03T09:59:36.420Z,31.10
2018-08-03T10:02:04.542Z,31.30
2018-08-03T10:04:32.646Z,31.40
2018-08-03T10:07:00.813Z,31.30
2018-08-03T10:09:28.956Z,31.50
2018-08-03T10:11:57.054Z,31.50
2018-08-03T10:14:25.157Z,31.60
2018-08-03T10:16:53.286Z,31.80
2018-08-03T10:19:21.551Z,32.10
2018-08-03T10:21:49.707Z,32.30
2018-08-03T10:24:17.821Z,32.30
2018-08-03T10:26:45.987Z,32.50
2018-08-03T10:29:14.117Z,32.40
2018-08-03T10:31:42.241Z,32.60
2018-08-03T10:34:10.346Z,32.80
2018-08-03T10:36:38.505Z,32.80
2018-08-03T10:39:08.012Z,32.90
2018-08-03T10:41:36.537Z,33.00
2018-08-03T10:44:04.687Z,33.10
2018-08-03T10:46:32.788Z,33.20
2018-08-03T10:49:00.986Z,33.40
2018-08-03T10:51:29.255Z,33.60
2018-08-03T10:53:57.360Z,33.70
2018-08-03T10:56:25.481Z,33.90
2018-08-03T10:58:53.658Z,34.10
2018-08-03T11:01:21.834Z,33.90
2018-08-03T11:03:49.858Z,34.00
2018-08-03T11:06:17.973Z,34.10
2018-08-03T11:08:46.089Z,34.30
2018-08-03T11:11:14.232Z,34.50
2018-08-03T11:13:42.429Z,34.60
2018-08-03T11:16:10.445Z,34.60
2018-08-03T11:18:38.552Z,34.60
2018-08-03T11:21:06.889Z,34.70
2018-08-03T11:23:35.029Z,35.00
2018-08-03T11:26:03.129Z,35.20
2018-08-03T11:28:31.273Z,35.20
2018-08-03T11:30:59.387Z,35.20
2018-08-03T11:33:27.508Z,35.30
2018-08-03T11:35:55.773Z,35.40
2018-08-03T11:38:23.892Z,35.60
2018-08-03T11:43:19.887Z,35.60
2018-08-03T11:45:47.992Z,35.70
2018-08-03T11:48:16.156Z,35.80
2018-08-03T11:50:44.249Z,35.70
2018-08-03T11:53:12.353Z,35.60
2018-08-03T11:55:40.484Z,35.80
2018-08-03T11:58:08.632Z,36.00
2018-08-03T12:00:36.772Z,36.10
2018-08-03T12:03:04.914Z,36.00
2018-08-03T12:05:33.029Z,36.10
2018-08-03T12:08:01.155Z,36.40
2018-08-03T12:10:29.369Z,36.50
2018-08-03T12:12:57.494Z,36.70
2018-08-03T12:15:25.613Z,36.40
2018-08-03T12:17:53.845Z,36.60
2018-08-03T12:20:21.909Z,36.60
2018-08-03T12:22:50.208Z,36.70
2018-08-03T12:25:18.349Z,36.60
2018-08-03T12:27:46.485Z,36.70
2018-08-03T12:30:14.600Z,36.90
2018-08-03T12:32:42.793Z,37.00
2018-08-03T12:35:10.908Z,37.20
2018-08-03T12:37:39.042Z,37.30
2018-08-03T12:40:07.137Z,37.50
2018-08-03T12:42:35.286Z,37.50
2018-08-03T12:45:03.409Z,37.40
2018-08-03T12:47:31.578Z,37.40
2018-08-03T12:49:59.714Z,37.60
2018-08-03T12:52:27.912Z,38.10
2018-08-03T12:54:55.979Z,38.80
2018-08-03T12:57:24.145Z,39.20
2018-08-03T12:59:52.368Z,39.50
2018-08-03T13:02:20.474Z,39.50
2018-08-03T13:04:48.609Z,40.00
2018-08-03T13:07:16.791Z,40.30
2018-08-03T13:09:44.901Z,40.00
2018-08-03T13:12:13.022Z,40.50
2018-08-03T13:17:09.018Z,42.30
2018-08-03T13:19:37.198Z,43.10
2018-08-03T13:22:05.405Z,43.10
2018-08-03T13:24:33.642Z,42.40
2018-08-03T13:27:01.733Z,42.50
2018-08-03T13:29:29.901Z,42.60
2018-08-03T13:31:57.933Z,43.00
2018-08-03T13:34:26.050Z,43.30
2018-08-03T13:36:54.205Z,43.20
2018-08-03T13:39:22.326Z,43.20
2018-08-03T13:41:50.430Z,43.00
2018-08-03T13:44:18.526Z,43.40
2018-08-03T13:46:46.659Z,43.90
2018-08-03T13:49:14.784Z,44.10
2018-08-03T13:51:42.902Z,43.20
2018-08-03T13:54:11.023Z,42.70
2018-08-03T13:56:39.144Z,43.00
2018-08-03T13:59:07.297Z,44.20
2018-08-03T14:01:44.225Z,45.20
2018-08-03T14:04:12.439Z,45.60
2018-08-03T14:06:40.505Z,46.50
2018-08-03T14:09:08.637Z,46.30
2018-08-03T14:11:36.777Z,46.60
2018-08-03T14:14:04.903Z,46.60
2018-08-03T14:16:34.015Z,46.30
2018-08-03T14:19:02.254Z,46.20
2018-08-03T14:21:30.381Z,46.50
2018-08-03T14:23:58.490Z,47.10
2018-08-03T14:26:26.700Z,47.20
2018-08-03T14:28:54.836Z,46.60
2018-08-03T14:31:22.954Z,46.70
2018-08-03T14:33:51.087Z,46.10
2018-08-03T14:36:19.179Z,46.00
2018-08-03T14:38:47.319Z,46.30
2018-08-03T14:41:15.471Z,46.60
2018-08-03T14:43:43.549Z,47.00
2018-08-03T14:46:11.664Z,47.10
2018-08-03T14:48:39.813Z,46.80
2018-08-03T14:51:08.077Z,46.00
2018-08-03T14:53:36.192Z,45.70
2018-08-03T14:56:04.347Z,45.40
2018-08-03T14:58:32.466Z,44.60
2018-08-03T15:01:00.569Z,45.30
2018-08-03T15:03:28.653Z,45.40
2018-08-03T15:05:57.850Z,44.50
2018-08-03T15:08:25.952Z,43.00
2018-08-03T15:10:54.085Z,41.70
2018-08-03T15:13:22.168Z,40.70
2018-08-03T15:15:50.328Z,39.70
2018-08-03T15:18:18.428Z,38.70
2018-08-03T15:20:46.541Z,38.30
2018-08-03T15:23:14.637Z,38.60
2018-08-03T15:25:42.757Z,38.60
2018-08-03T15:28:11.073Z,38.60
2018-08-03T15:33:07.621Z,38.40
2018-08-03T15:35:35.779Z,38.20
2018-08-03T15:38:03.902Z,37.80
2018-08-03T15:40:32.077Z,37.50
2018-08-03T15:43:00.182Z,37.30
2018-08-03T15:45:28.276Z,37.10
2018-08-03T15:50:24.347Z,36.80
2018-08-03T15:52:52.691Z,36.70
2018-08-03T15:55:20.867Z,36.50
2018-08-03T15:57:49.077Z,36.40
2018-08-03T16:00:17.197Z,36.30
2018-08-03T16:02:45.301Z,36.30
2018-08-03T16:05:13.567Z,36.30
2018-08-03T16:07:41.653Z,36.30
2018-08-03T16:10:09.744Z,36.20
2018-08-03T16:12:37.833Z,36.10
2018-08-03T16:15:06.387Z,36.10
2018-08-03T16:17:34.473Z,36.10
2018-08-03T16:20:02.599Z,36.10
2018-08-03T16:22:30.845Z,36.20
2018-08-03T16:24:58.936Z,36.10
2018-08-03T16:27:27.029Z,36.10
2018-08-03T16:29:55.112Z,36.10
2018-08-03T16:32:23.221Z,36.00
2018-08-03T16:34:51.319Z,35.90
2018-08-03T16:37:19.412Z,35.90
2018-08-03T16:39:47.485Z,35.80
2018-08-03T16:44:44.361Z,35.70
2018-08-03T16:47:12.581Z,35.70
2018-08-03T16:49:40.668Z,35.60
2018-08-03T16:52:08.797Z,35.50
2018-08-03T16:54:36.886Z,35.50
2018-08-03T16:57:05.016Z,35.40
2018-08-03T17:02:01.033Z,35.30
2018-08-03T17:04:29.114Z,35.20
2018-08-03T17:06:57.218Z,35.20
2018-08-03T17:09:25.383Z,35.10
2018-08-03T17:11:53.473Z,35.20
2018-08-03T17:14:21.561Z,35.10
2018-08-03T17:16:49.658Z,35.10
2018-08-03T17:19:17.752Z,35.10
2018-08-03T17:21:45.898Z,35.10
2018-08-03T17:24:14.010Z,35.10
2018-08-03T17:26:42.093Z,35.00
2018-08-03T17:29:10.171Z,35.00
2018-08-03T17:31:38.276Z,34.90
2018-08-03T17:34:06.363Z,34.90
2018-08-03T17:36:34.494Z,34.80
2018-08-03T17:39:02.642Z,34.70
2018-08-03T17:41:30.779Z,34.60
2018-08-03T17:43:58.913Z,34.60
2018-08-03T17:46:27.366Z,34.50
2018-08-03T17:48:55.554Z,34.50
2018-08-03T17:51:23.777Z,34.50
2018-08-03T17:53:51.870Z,34.40
2018-08-03T17:56:20.067Z,34.30
2018-08-03T17:58:48.161Z,34.20
2018-08-03T18:01:16.291Z,34.10
2018-08-03T18:03:44.357Z,34.10
2018-08-03T18:06:12.487Z,34.10
2018-08-03T18:08:40.787Z,34.00
2018-08-03T18:11:08.923Z,33.90
2018-08-03T18:13:37.064Z,33.80
2018-08-03T18:16:05.546Z,33.70
2018-08-03T18:18:33.642Z,33.70
2018-08-03T18:21:01.803Z,33.60
2018-08-03T18:23:29.909Z,33.60
2018-08-03T18:25:57.998Z,33.50
2018-08-03T18:28:26.268Z,33.40
2018-08-03T18:30:54.373Z,33.40
2018-08-03T18:33:22.618Z,33.30
2018-08-03T18:35:50.748Z,33.20
2018-08-03T18:38:18.836Z,33.20
2018-08-03T18:40:46.967Z,33.10
2018-08-03T18:45:42.983Z,33.00
2018-08-03T18:48:11.090Z,32.90
2018-08-03T18:50:39.187Z,32.80
2018-08-03T18:53:07.274Z,32.70
2018-08-03T18:55:35.402Z,32.70
2018-08-03T18:58:03.517Z,32.70
2018-08-03T19:00:31.598Z,32.60
2018-08-03T19:02:59.730Z,32.50
2018-08-03T19:05:27.838Z,32.40
2018-08-03T19:07:55.920Z,32.40
2018-08-03T19:10:24.014Z,32.30
2018-08-03T19:15:19.999Z,32.20
2018-08-03T19:17:48.077Z,32.10
2018-08-03T19:20:16.153Z,32.10
2018-08-03T19:22:44.237Z,32.00
2018-08-03T19:25:12.345Z,31.90
2018-08-03T19:27:40.438Z,31.80
2018-08-03T19:30:08.553Z,31.70
2018-08-03T19:32:36.640Z,31.70
2018-08-03T19:35:04.767Z,31.60
2018-08-03T19:37:32.997Z,31.50
2018-08-03T19:40:01.107Z,31.40
2018-08-03T19:42:29.199Z,31.30
2018-08-03T19:44:57.299Z,31.30
2018-08-03T19:47:25.414Z,31.20
2018-08-03T19:49:53.515Z,31.10
2018-08-03T19:52:21.619Z,31.00
2018-08-03T19:54:49.723Z,31.00
2018-08-03T19:57:17.862Z,30.90
2018-08-03T19:59:46.006Z,30.90
2018-08-03T20:02:14.085Z,30.90
2018-08-03T20:04:42.173Z,30.80
2018-08-03T20:07:10.301Z,30.80
2018-08-03T20:09:38.454Z,30.70
2018-08-03T20:12:06.575Z,30.70
2018-08-03T20:14:34.791Z,30.60
2018-08-03T20:17:02.875Z,30.40
2018-08-03T20:19:31.012Z,30.40
2018-08-03T20:21:59.186Z,30.30
2018-08-03T20:24:27.276Z,30.10
2018-08-03T20:26:55.398Z,30.00
2018-08-03T20:29:23.503Z,29.90
2018-08-03T20:31:51.606Z,29.80
2018-08-03T20:34:19.684Z,29.80
2018-08-03T20:36:47.805Z,29.70
2018-08-03T20:39:15.953Z,29.60
2018-08-03T20:41:44.017Z,29.60
2018-08-03T20:44:12.186Z,29.50
2018-08-03T20:46:40.281Z,29.50
2018-08-03T20:49:08.362Z,29.50
2018-08-03T20:51:36.520Z,29.50
2018-08-03T20:54:04.634Z,29.40
2018-08-03T20:59:00.786Z,29.40
2018-08-03T21:01:28.997Z,29.30
2018-08-03T21:03:57.229Z,29.20
2018-08-03T21:06:25.360Z,29.10
2018-08-03T21:08:53.476Z,29.10
2018-08-03T21:11:21.565Z,29.00
2018-08-03T21:13:49.717Z,29.00
2018-08-03T21:16:17.833Z,28.80
2018-08-03T21:18:45.943Z,28.80
2018-08-03T21:21:14.069Z,28.70
2018-08-03T21:23:42.200Z,28.60
2018-08-03T21:26:10.281Z,28.60
2018-08-03T21:28:38.397Z,28.50
2018-08-03T21:31:06.520Z,28.50
2018-08-03T21:33:34.625Z,28.40
2018-08-03T21:36:02.721Z,28.40
2018-08-03T21:38:30.840Z,28.30
2018-08-03T21:40:58.931Z,28.20
2018-08-03T21:43:27.037Z,28.10
2018-08-03T21:45:55.160Z,28.00
2018-08-03T21:48:23.302Z,27.90
2018-08-03T21:50:51.433Z,27.90
2018-08-03T21:53:19.588Z,27.90
2018-08-03T21:55:47.664Z,27.80
2018-08-03T21:58:15.759Z,27.80
2018-08-03T22:00:43.873Z,27.80
2018-08-03T22:03:11.995Z,27.70
2018-08-03T22:05:40.115Z,27.60
2018-08-03T22:08:08.226Z,27.50
2018-08-03T22:10:36.413Z,27.50
2018-08-03T22:13:04.529Z,27.40
2018-08-03T22:15:32.654Z,27.40
2018-08-03T22:18:00.979Z,27.40
2018-08-03T22:20:29.085Z,27.30
2018-08-03T22:22:57.201Z,27.40
2018-08-03T22:25:25.306Z,27.40
2018-08-03T22:27:53.405Z,27.40
2018-08-03T22:30:21.590Z,27.40
2018-08-03T22:32:49.755Z,27.30
2018-08-03T22:35:17.799Z,27.20
2018-08-03T22:40:13.887Z,27.00
2018-08-03T22:42:42.020Z,27.00
2018-08-03T22:47:38.094Z,26.80
2018-08-03T22:50:06.313Z,26.80
2018-08-03T22:52:34.412Z,26.80
2018-08-03T22:55:02.769Z,26.70
2018-08-03T22:57:30.934Z,26.70
2018-08-03T22:59:59.057Z,26.70
2018-08-03T23:02:27.157Z,26.70
2018-08-03T23:04:55.277Z,26.60
2018-08-03T23:07:23.370Z,26.50
2018-08-03T23:09:51.446Z,26.50
2018-08-03T23:12:19.550Z,26.50
2018-08-03T23:14:47.668Z,26.50
2018-08-03T23:17:15.806Z,26.40
2018-08-03T23:19:43.961Z,26.40
2018-08-03T23:22:12.077Z,26.40
2018-08-03T23:24:40.180Z,26.30
2018-08-03T23:27:08.335Z,26.20
2018-08-03T23:29:36.614Z,26.10
2018-08-03T23:32:04.807Z,26.00
2018-08-03T23:34:32.907Z,26.00
2018-08-03T23:37:01.026Z,26.00
2018-08-03T23:39:29.139Z,25.90
2018-08-03T23:41:57.295Z,25.90
2018-08-03T23:44:25.429Z,25.70
2018-08-03T23:46:53.534Z,25.70
2018-08-03T23:49:21.659Z,25.60
2018-08-03T23:51:49.784Z,25.50
2018-08-03T23:54:17.898Z,25.50
2018-08-03T23:56:46.002Z,25.50
2018-08-03T23:59:14.111Z,25.40
